createdAt,value
2023-03-06T00:01:00.395Z,3.40
2023-03-06T00:03:28.655Z,3.50
2023-03-06T00:05:58.943Z,3.20
2023-03-06T00:16:07.241Z,3.90
2023-03-06T00:18:35.899Z,3.70
2023-03-06T00:21:11.542Z,3.40
2023-03-06T00:23:41.399Z,3.80
2023-03-06T00:26:10.206Z,3.50
2023-03-06T00:28:40.822Z,3.80
2023-03-06T00:31:15.100Z,3.80
2023-03-06T00:33:45.715Z,4.00
2023-03-06T00:36:14.496Z,3.90
2023-03-06T00:38:42.675Z,4.20
2023-03-06T00:41:11.712Z,4.10
2023-03-06T00:43:40.660Z,3.70
2023-03-06T00:46:09.685Z,5.00
2023-03-06T00:48:38.327Z,4.30
2023-03-06T00:51:13.485Z,4.20
2023-03-06T00:53:42.173Z,4.20
2023-03-06T00:56:10.861Z,4.50
2023-03-06T00:58:39.017Z,4.30
2023-03-06T01:01:07.319Z,4.70
2023-03-06T01:03:36.096Z,4.30
2023-03-06T01:06:06.602Z,4.30
2023-03-06T01:08:38.004Z,4.90
2023-03-06T01:11:07.630Z,5.10
2023-03-06T01:13:35.793Z,5.30
2023-03-06T01:16:08.877Z,4.90
2023-03-06T01:18:38.160Z,4.70
2023-03-06T01:21:06.512Z,5.00
2023-03-06T01:23:36.631Z,4.80
2023-03-06T01:26:05.061Z,5.70
2023-03-06T01:28:35.294Z,5.20
2023-03-06T01:31:04.687Z,5.80
2023-03-06T01:33:34.302Z,5.00
2023-03-06T01:36:07.053Z,5.40
2023-03-06T01:38:35.607Z,5.70
2023-03-06T01:41:04.081Z,5.80
2023-03-06T01:43:36.718Z,5.70
2023-03-06T01:46:44.165Z,5.90
2023-03-06T01:49:20.311Z,5.80
2023-03-06T01:51:53.130Z,6.80
2023-03-06T01:54:22.963Z,6.40
2023-03-06T01:56:54.815Z,6.10
2023-03-06T01:59:22.896Z,6.10
2023-03-06T02:01:51.800Z,5.50
2023-03-06T02:04:20.074Z,5.60
2023-03-06T02:06:48.393Z,5.70
2023-03-06T02:09:18.198Z,6.20
2023-03-06T02:11:51.336Z,6.00
2023-03-06T02:14:19.796Z,6.20
2023-03-06T02:16:49.629Z,6.40
2023-03-06T02:19:31.476Z,6.10
2023-03-06T02:22:00.054Z,6.40
2023-03-06T02:24:50.443Z,6.70
2023-03-06T02:27:19.333Z,6.20
2023-03-06T02:29:47.401Z,6.20
2023-03-06T02:32:16.132Z,6.60
2023-03-06T02:37:16.263Z,6.20
2023-03-06T02:39:48.063Z,5.90
2023-03-06T02:42:21.208Z,6.20
2023-03-06T02:44:49.239Z,5.90
2023-03-06T02:47:17.515Z,6.40
2023-03-06T02:49:47.646Z,7.00
2023-03-06T02:52:16.042Z,7.30
2023-03-06T02:54:44.416Z,6.40
2023-03-06T02:57:15.274Z,6.80
2023-03-06T02:59:43.681Z,7.60
2023-03-06T03:02:12.770Z,7.10
2023-03-06T03:04:42.218Z,7.90
2023-03-06T03:07:17.137Z,6.90
2023-03-06T03:09:45.313Z,7.10
2023-03-06T03:12:16.275Z,6.70
2023-03-06T03:17:17.380Z,7.40
2023-03-06T03:19:48.432Z,7.20
2023-03-06T03:22:17.444Z,7.20
2023-03-06T03:24:48.174Z,7.80
2023-03-06T03:27:16.769Z,7.00
2023-03-06T03:29:46.494Z,7.70
2023-03-06T03:32:14.823Z,8.10
2023-03-06T03:34:43.287Z,8.60
2023-03-06T03:37:11.676Z,7.70
2023-03-06T03:39:39.602Z,7.10
2023-03-06T03:45:00.678Z,10.30
2023-03-06T03:47:29.791Z,9.50
2023-03-06T03:49:59.014Z,9.50
2023-03-06T03:52:27.594Z,8.90
2023-03-06T03:54:56.061Z,9.90
2023-03-06T03:57:24.532Z,9.20
2023-03-06T03:59:53.669Z,8.40
2023-03-06T04:02:44.225Z,9.10
2023-03-06T04:05:22.805Z,10.00
2023-03-06T04:07:54.997Z,10.10
2023-03-06T04:10:23.383Z,10.50
2023-03-06T04:12:51.948Z,12.20
2023-03-06T04:15:24.718Z,11.80
2023-03-06T04:17:53.854Z,10.80
2023-03-06T04:20:26.144Z,11.10
2023-03-06T04:22:54.831Z,12.10
2023-03-06T04:25:23.733Z,12.50
2023-03-06T04:27:52.325Z,11.80
2023-03-06T04:30:21.121Z,12.40
2023-03-06T04:32:49.513Z,15.80
2023-03-06T04:35:17.835Z,13.90
2023-03-06T04:37:54.003Z,13.00
2023-03-06T04:42:59.704Z,13.20
2023-03-06T04:45:28.663Z,12.90
2023-03-06T04:48:00.582Z,19.80
2023-03-06T04:50:32.543Z,17.90
2023-03-06T04:53:03.624Z,18.50
2023-03-06T04:55:33.004Z,18.90
2023-03-06T04:58:01.108Z,18.80
2023-03-06T05:00:31.511Z,17.00
2023-03-06T05:03:00.268Z,13.10
2023-03-06T05:05:28.319Z,12.80
2023-03-06T05:07:56.605Z,12.60
2023-03-06T05:10:27.087Z,13.10
2023-03-06T05:12:56.464Z,13.50
2023-03-06T05:15:24.671Z,14.40
2023-03-06T05:17:56.628Z,13.80
2023-03-06T05:20:24.819Z,16.10
2023-03-06T05:22:56.085Z,15.00
2023-03-06T05:25:24.466Z,15.20
2023-03-06T05:27:52.772Z,15.40
2023-03-06T05:30:23.185Z,15.20
2023-03-06T05:32:52.274Z,16.20
2023-03-06T05:35:22.078Z,15.60
2023-03-06T05:37:50.203Z,16.00
2023-03-06T05:43:42.270Z,16.10
2023-03-06T05:46:11.528Z,16.70
2023-03-06T05:48:39.882Z,18.10
2023-03-06T05:51:08.038Z,18.10
2023-03-06T05:53:36.766Z,19.00
2023-03-06T05:56:10.853Z,18.30
2023-03-06T05:58:41.630Z,19.30
2023-03-06T06:01:14.793Z,18.90
2023-03-06T06:03:43.759Z,16.60
2023-03-06T06:06:13.144Z,15.30
2023-03-06T06:08:44.083Z,18.10
2023-03-06T06:11:12.901Z,17.10
2023-03-06T06:13:45.217Z,17.40
2023-03-06T06:16:16.498Z,20.80
2023-03-06T06:18:45.321Z,19.30
2023-03-06T06:21:18.897Z,16.60
2023-03-06T06:23:47.892Z,16.20
2023-03-06T06:26:16.183Z,15.20
2023-03-06T06:28:44.584Z,15.20
2023-03-06T06:31:13.427Z,16.70
2023-03-06T06:33:42.923Z,15.60
2023-03-06T06:36:20.730Z,15.10
2023-03-06T06:38:50.844Z,13.70
2023-03-06T06:44:13.883Z,15.40
2023-03-06T06:49:33.746Z,18.90
2023-03-06T06:52:02.201Z,16.60
2023-03-06T06:54:30.254Z,16.90
2023-03-06T06:56:58.382Z,16.10
2023-03-06T06:59:27.039Z,16.10
2023-03-06T07:01:55.263Z,18.90
2023-03-06T07:04:23.564Z,22.50
2023-03-06T07:06:55.775Z,23.20
2023-03-06T07:09:24.250Z,18.90
2023-03-06T07:11:53.608Z,19.30
2023-03-06T07:14:21.922Z,17.60
2023-03-06T07:16:50.039Z,14.20
2023-03-06T07:19:21.051Z,14.30
2023-03-06T07:21:49.247Z,11.60
2023-03-06T07:24:17.612Z,13.00
2023-03-06T07:26:47.373Z,9.40
2023-03-06T07:29:16.019Z,9.80
2023-03-06T07:31:44.272Z,8.10
2023-03-06T07:34:13.105Z,9.90
2023-03-06T07:36:41.518Z,9.30
2023-03-06T07:39:10.008Z,9.20
2023-03-06T07:41:40.947Z,5.40
2023-03-06T07:44:13.227Z,6.90
2023-03-06T07:46:41.669Z,7.30
2023-03-06T07:49:09.871Z,7.00
2023-03-06T07:51:39.509Z,6.40
2023-03-06T07:54:08.024Z,8.10
2023-03-06T07:56:36.950Z,6.90
2023-03-06T07:59:05.069Z,6.60
2023-03-06T08:01:33.368Z,6.60
2023-03-06T08:04:02.147Z,7.10
2023-03-06T08:06:30.412Z,6.30
2023-03-06T08:08:58.899Z,6.40
2023-03-06T08:11:28.662Z,5.50
2023-03-06T08:13:58.557Z,6.50
2023-03-06T08:16:29.351Z,6.90
2023-03-06T08:18:58.526Z,6.20
2023-03-06T08:21:27.774Z,6.30
2023-03-06T08:23:56.263Z,6.50
2023-03-06T08:26:26.623Z,5.70
2023-03-06T08:28:55.649Z,6.80
2023-03-06T08:31:32.740Z,6.70
2023-03-06T08:34:03.501Z,6.40
2023-03-06T08:36:37.336Z,6.80
2023-03-06T08:39:06.082Z,7.40
2023-03-06T08:41:34.788Z,6.90
2023-03-06T08:44:04.012Z,7.20
2023-03-06T08:46:33.028Z,7.40
2023-03-06T08:49:02.579Z,6.50
2023-03-06T08:51:31.408Z,6.50
2023-03-06T08:54:05.231Z,6.50
2023-03-06T08:56:34.147Z,6.70
2023-03-06T08:59:04.618Z,6.70
2023-03-06T09:01:35.117Z,7.10
2023-03-06T09:04:23.026Z,7.50
2023-03-06T09:09:25.515Z,7.60
2023-03-06T09:11:54.997Z,8.50
2023-03-06T09:14:23.592Z,8.00
2023-03-06T09:16:52.293Z,8.20
2023-03-06T09:19:20.485Z,8.00
2023-03-06T09:21:49.220Z,7.80
2023-03-06T09:24:17.742Z,7.90
2023-03-06T09:26:47.974Z,7.90
2023-03-06T09:29:17.704Z,8.30
2023-03-06T09:31:48.465Z,7.60
2023-03-06T09:34:17.092Z,7.40
2023-03-06T09:36:56.411Z,7.40
2023-03-06T09:39:25.696Z,7.90
2023-03-06T09:41:54.446Z,7.90
2023-03-06T09:44:27.820Z,7.20
2023-03-06T09:47:18.158Z,7.60
2023-03-06T09:49:52.824Z,7.80
2023-03-06T09:52:30.266Z,8.50
2023-03-06T09:55:01.311Z,8.80
2023-03-06T09:57:36.872Z,8.10
2023-03-06T10:00:12.747Z,7.60
2023-03-06T10:02:42.753Z,7.10
2023-03-06T10:05:22.140Z,7.30
2023-03-06T10:08:00.885Z,7.90
2023-03-06T10:10:55.054Z,7.20
2023-03-06T10:13:26.410Z,8.10
2023-03-06T10:15:58.781Z,7.50
2023-03-06T10:18:27.236Z,7.90
2023-03-06T10:21:13.360Z,8.10
2023-03-06T10:24:12.726Z,8.30
2023-03-06T10:27:03.518Z,8.80
2023-03-06T10:30:04.687Z,8.40
2023-03-06T10:32:47.491Z,10.40
2023-03-06T10:35:21.942Z,8.30
2023-03-06T10:37:50.120Z,9.50
2023-03-06T10:40:21.008Z,9.50
2023-03-06T10:42:56.073Z,9.90
2023-03-06T10:45:40.565Z,9.30
2023-03-06T10:48:22.510Z,9.50
2023-03-06T10:50:51.063Z,9.40
2023-03-06T10:53:26.893Z,9.00
2023-03-06T10:55:56.995Z,9.50
2023-03-06T10:58:27.826Z,9.60
2023-03-06T11:01:08.112Z,9.10
2023-03-06T11:03:36.668Z,8.70
2023-03-06T11:06:13.458Z,9.90
2023-03-06T11:08:44.495Z,10.40
2023-03-06T11:11:15.904Z,9.00
2023-03-06T11:13:55.772Z,9.70
2023-03-06T11:16:27.275Z,9.60
2023-03-06T11:19:01.260Z,9.20
2023-03-06T11:21:31.707Z,9.00
2023-03-06T11:24:35.826Z,8.70
2023-03-06T11:27:17.113Z,9.20
2023-03-06T11:29:47.304Z,8.70
2023-03-06T11:32:16.725Z,9.40
2023-03-06T11:34:45.467Z,12.00
2023-03-06T11:37:23.818Z,10.80
2023-03-06T11:39:54.804Z,10.90
2023-03-06T11:42:28.243Z,12.40
2023-03-06T11:45:26.153Z,14.80
2023-03-06T11:48:18.891Z,13.90
2023-03-06T11:50:57.207Z,11.90
2023-03-06T11:53:55.228Z,10.80
2023-03-06T11:56:49.549Z,12.40
2023-03-06T12:00:01.261Z,9.90
2023-03-06T12:02:32.974Z,8.90
2023-03-06T12:05:10.966Z,11.00
2023-03-06T12:07:57.773Z,11.00
2023-03-06T12:10:34.905Z,9.80
2023-03-06T12:13:29.989Z,8.80
2023-03-06T12:16:16.873Z,9.00
2023-03-06T12:19:17.696Z,8.10
2023-03-06T12:21:48.828Z,7.90
2023-03-06T12:24:23.614Z,9.60
2023-03-06T12:26:57.546Z,8.50
2023-03-06T12:29:40.479Z,8.80
2023-03-06T12:32:21.829Z,9.00
2023-03-06T12:34:56.824Z,9.10
2023-03-06T12:37:45.915Z,8.80
2023-03-06T12:40:40.165Z,12.50
2023-03-06T12:43:11.843Z,8.20
2023-03-06T12:45:40.285Z,8.60
2023-03-06T12:48:25.829Z,7.20
2023-03-06T12:50:54.226Z,6.30
2023-03-06T12:53:27.685Z,6.80
2023-03-06T12:56:02.118Z,7.20
2023-03-06T12:58:30.820Z,6.80
2023-03-06T13:01:27.574Z,7.00
2023-03-06T13:04:17.198Z,7.00
2023-03-06T13:07:40.260Z,8.70
2023-03-06T13:10:10.517Z,7.40
2023-03-06T13:12:43.126Z,7.30
2023-03-06T13:15:39.365Z,7.20
2023-03-06T13:18:21.887Z,6.50
2023-03-06T13:20:51.936Z,6.50
2023-03-06T13:23:34.175Z,6.80
2023-03-06T13:26:09.248Z,6.20
2023-03-06T13:29:26.652Z,5.60
2023-03-06T13:31:54.852Z,5.20
2023-03-06T13:34:36.386Z,9.40
2023-03-06T13:37:18.549Z,6.50
2023-03-06T13:39:56.907Z,6.20
2023-03-06T13:42:38.003Z,6.70
2023-03-06T13:45:15.090Z,6.40
2023-03-06T13:50:44.388Z,6.30
2023-03-06T13:53:46.818Z,6.10
2023-03-06T13:56:24.080Z,5.90
2023-03-06T13:59:02.757Z,5.80
2023-03-06T14:02:05.184Z,5.70
2023-03-06T14:04:43.119Z,6.70
2023-03-06T14:07:42.456Z,5.40
2023-03-06T14:10:14.982Z,4.20
2023-03-06T14:12:55.687Z,4.60
2023-03-06T14:15:45.367Z,2.50
2023-03-06T14:18:14.775Z,2.60
2023-03-06T14:21:01.164Z,1.90
2023-03-06T14:23:34.441Z,2.10
2023-03-06T14:26:24.409Z,2.00
2023-03-06T14:28:52.596Z,2.10
2023-03-06T14:31:41.724Z,2.30
2023-03-06T14:34:22.097Z,3.30
2023-03-06T14:37:01.454Z,2.50
2023-03-06T14:39:40.716Z,2.20
2023-03-06T14:42:21.878Z,2.50
2023-03-06T14:45:01.470Z,3.20
2023-03-06T14:47:36.420Z,2.50
2023-03-06T14:50:27.495Z,2.60
2023-03-06T14:53:14.596Z,3.10
2023-03-06T14:55:50.415Z,3.50
2023-03-06T14:58:22.061Z,2.70
2023-03-06T15:00:51.384Z,3.40
2023-03-06T15:03:23.086Z,3.50
2023-03-06T15:08:22.695Z,3.60
2023-03-06T15:13:39.443Z,3.60
2023-03-06T15:16:13.823Z,3.70
2023-03-06T15:18:54.410Z,3.90
2023-03-06T15:21:23.117Z,4.00
2023-03-06T15:23:52.348Z,3.70
2023-03-06T15:26:34.050Z,4.50
2023-03-06T15:29:11.220Z,4.40
2023-03-06T15:31:42.549Z,5.50
2023-03-06T15:34:10.654Z,3.40
2023-03-06T15:36:46.341Z,4.10
2023-03-06T15:39:32.838Z,4.20
2023-03-06T15:42:16.321Z,4.50
2023-03-06T15:44:47.930Z,5.70
2023-03-06T15:47:16.515Z,6.20
2023-03-06T15:49:49.044Z,6.40
2023-03-06T15:52:17.696Z,5.70
2023-03-06T15:54:46.411Z,5.10
2023-03-06T15:57:25.420Z,4.80
2023-03-06T15:59:53.846Z,4.40
2023-03-06T16:02:22.648Z,4.50
2023-03-06T16:04:51.542Z,4.10
2023-03-06T16:07:20.746Z,7.50
2023-03-06T16:09:50.783Z,8.60
2023-03-06T16:12:20.537Z,22.30
2023-03-06T16:14:48.951Z,20.90
2023-03-06T16:17:17.356Z,12.20
2023-03-06T16:19:45.936Z,9.80
2023-03-06T16:22:14.493Z,8.60
2023-03-06T16:24:43.417Z,8.90
2023-03-06T16:27:18.777Z,17.80
2023-03-06T16:29:49.454Z,16.00
2023-03-06T16:32:17.806Z,14.70
2023-03-06T16:34:46.267Z,10.60
2023-03-06T16:37:16.772Z,8.60
2023-03-06T16:39:44.999Z,10.20
2023-03-06T16:42:13.414Z,9.70
2023-03-06T16:44:41.602Z,10.00
2023-03-06T16:47:12.989Z,12.20
2023-03-06T16:49:42.415Z,12.20
2023-03-06T16:52:11.073Z,12.10
2023-03-06T16:57:14.348Z,14.40
2023-03-06T16:59:42.618Z,14.50
2023-03-06T17:02:12.037Z,12.30
2023-03-06T17:04:40.217Z,12.80
2023-03-06T17:07:08.449Z,13.50
2023-03-06T17:09:37.273Z,14.20
2023-03-06T17:12:05.685Z,13.60
2023-03-06T17:14:34.716Z,11.30
2023-03-06T17:17:03.197Z,11.90
2023-03-06T17:19:35.943Z,14.20
2023-03-06T17:22:05.283Z,12.60
2023-03-06T17:24:35.490Z,12.90
2023-03-06T17:27:06.863Z,10.30
2023-03-06T17:29:35.416Z,9.10
2023-03-06T17:32:03.762Z,8.40
2023-03-06T17:34:32.607Z,8.10
2023-03-06T17:37:01.460Z,7.90
2023-03-06T17:39:33.733Z,8.10
2023-03-06T17:42:03.387Z,8.40
2023-03-06T17:44:32.478Z,8.30
2023-03-06T17:47:00.573Z,7.60
2023-03-06T17:49:28.863Z,8.20
2023-03-06T17:51:59.712Z,8.20
2023-03-06T17:54:29.904Z,7.40
2023-03-06T17:57:01.122Z,7.80
2023-03-06T17:59:30.552Z,7.60
2023-03-06T18:01:59.982Z,8.20
2023-03-06T18:04:28.453Z,9.70
2023-03-06T18:06:58.410Z,8.70
2023-03-06T18:09:27.383Z,8.30
2023-03-06T18:11:55.560Z,8.00
2023-03-06T18:14:24.494Z,7.90
2023-03-06T18:16:54.078Z,7.90
2023-03-06T18:19:22.582Z,7.60
2023-03-06T18:21:51.667Z,7.90
2023-03-06T18:24:21.825Z,6.50
2023-03-06T18:26:50.918Z,5.60
2023-03-06T18:29:22.613Z,6.00
2023-03-06T18:31:51.489Z,6.80
2023-03-06T18:34:19.650Z,7.20
2023-03-06T18:36:51.537Z,8.20
2023-03-06T18:39:21.467Z,9.40
2023-03-06T18:41:53.649Z,10.50
2023-03-06T18:44:22.139Z,10.80
2023-03-06T18:46:50.235Z,12.50
2023-03-06T18:49:19.254Z,12.60
2023-03-06T18:51:51.167Z,11.40
2023-03-06T18:54:19.698Z,10.20
2023-03-06T18:56:48.058Z,10.40
2023-03-06T18:59:36.005Z,9.80
2023-03-06T19:02:04.923Z,9.60
2023-03-06T19:04:33.421Z,9.70
2023-03-06T19:07:02.375Z,9.50
2023-03-06T19:09:30.875Z,9.00
2023-03-06T19:12:00.672Z,8.40
2023-03-06T19:14:30.324Z,8.00
2023-03-06T19:16:58.708Z,7.90
2023-03-06T19:19:32.586Z,8.10
2023-03-06T19:22:01.093Z,8.70
2023-03-06T19:24:36.672Z,10.00
2023-03-06T19:27:05.184Z,9.40
2023-03-06T19:29:33.410Z,10.60
2023-03-06T19:32:01.686Z,10.70
2023-03-06T19:34:30.440Z,9.80
2023-03-06T19:37:03.265Z,10.60
2023-03-06T19:39:33.293Z,10.40
2023-03-06T19:42:04.684Z,10.70
2023-03-06T19:44:34.869Z,10.30
2023-03-06T19:47:03.079Z,10.40
2023-03-06T19:49:33.036Z,9.50
2023-03-06T19:52:01.315Z,9.90
2023-03-06T19:54:32.411Z,9.80
2023-03-06T19:57:01.556Z,9.40
2023-03-06T19:59:33.562Z,9.40
2023-03-06T20:02:01.706Z,9.10
2023-03-06T20:04:34.625Z,9.80
2023-03-06T20:07:04.869Z,10.40
2023-03-06T20:09:35.729Z,9.60
2023-03-06T20:12:08.361Z,9.80
2023-03-06T20:14:37.239Z,9.00
2023-03-06T20:17:05.334Z,9.20
2023-03-06T20:19:34.550Z,9.50
2023-03-06T20:22:03.359Z,9.50
2023-03-06T20:24:31.548Z,10.30
2023-03-06T20:26:59.544Z,9.90
2023-03-06T20:29:28.476Z,9.50
2023-03-06T20:32:02.545Z,9.30
2023-03-06T20:34:32.105Z,10.10
2023-03-06T20:37:00.300Z,9.50
2023-03-06T20:39:30.484Z,10.50
2023-03-06T20:42:00.038Z,10.80
2023-03-06T20:44:28.445Z,9.70
2023-03-06T20:46:56.786Z,8.70
2023-03-06T20:49:27.154Z,7.70
2023-03-06T20:51:56.928Z,7.90
2023-03-06T20:54:26.038Z,7.70
2023-03-06T20:56:54.703Z,8.00
2023-03-06T20:59:25.158Z,7.70
2023-03-06T21:01:53.359Z,7.80
2023-03-06T21:04:22.569Z,8.20
2023-03-06T21:06:52.704Z,7.50
2023-03-06T21:09:21.023Z,7.20
2023-03-06T21:11:52.145Z,6.60
2023-03-06T21:14:20.601Z,7.40
2023-03-06T21:16:48.839Z,8.10
2023-03-06T21:19:20.042Z,7.70
2023-03-06T21:21:48.426Z,7.50
2023-03-06T21:24:16.939Z,8.60
2023-03-06T21:28:17.282Z,8.20
2023-03-06T21:30:44.898Z,8.50
2023-03-06T21:33:12.328Z,8.20
2023-03-06T21:35:39.830Z,8.90
2023-03-06T21:38:07.296Z,8.90
2023-03-06T21:40:35.821Z,9.70
2023-03-06T21:43:03.335Z,10.00
2023-03-06T21:45:31.410Z,10.10
2023-03-06T21:48:01.017Z,9.00
2023-03-06T21:50:29.090Z,8.40
2023-03-06T21:52:55.861Z,7.50
2023-03-06T21:55:23.195Z,8.10
2023-03-06T21:57:51.171Z,7.90
2023-03-06T22:00:18.949Z,8.50
2023-03-06T22:02:46.240Z,9.10
2023-03-06T22:05:13.389Z,9.90
2023-03-06T22:07:40.755Z,16.90
2023-03-06T22:10:11.325Z,17.20
2023-03-06T22:12:39.223Z,16.40
2023-03-06T22:15:07.004Z,14.80
2023-03-06T22:17:34.481Z,14.80
2023-03-06T22:20:01.505Z,13.40
2023-03-06T22:22:30.017Z,12.70
2023-03-06T22:24:58.064Z,15.60
2023-03-06T22:27:25.023Z,13.10
2023-03-06T22:29:52.585Z,10.80
2023-03-06T22:32:19.867Z,11.00
2023-03-06T22:34:46.816Z,11.60
2023-03-06T22:37:33.486Z,11.00
2023-03-06T22:40:01.119Z,9.60
2023-03-06T22:42:28.808Z,9.80
2023-03-06T22:44:55.802Z,10.20
2023-03-06T22:47:22.778Z,10.10
2023-03-06T22:57:22.470Z,8.50
2023-03-06T22:59:50.843Z,8.40
2023-03-06T23:02:23.452Z,8.20
2023-03-06T23:04:53.388Z,9.00
2023-03-06T23:07:22.376Z,8.30
2023-03-06T23:09:52.216Z,8.10
2023-03-06T23:12:41.679Z,9.10
2023-03-06T23:15:28.986Z,10.70
2023-03-06T23:18:16.448Z,10.70
2023-03-06T23:21:11.727Z,10.50
2023-03-06T23:23:59.014Z,10.00
2023-03-06T23:26:29.222Z,10.80
2023-03-06T23:28:57.780Z,11.40
2023-03-06T23:31:28.954Z,11.60
2023-03-06T23:33:58.553Z,10.40
2023-03-06T23:36:26.737Z,9.70
2023-03-06T23:38:55.431Z,10.20
2023-03-06T23:41:24.224Z,9.70
2023-03-06T23:43:55.042Z,8.90
2023-03-06T23:46:23.675Z,9.30
2023-03-06T23:48:52.236Z,9.30
2023-03-06T23:51:21.683Z,8.80
2023-03-06T23:53:58.294Z,8.90
2023-03-06T23:56:27.371Z,8.80
2023-03-06T23:58:55.976Z,9.00
